createdAt,value
2019-05-09T00:00:10.461Z,12.78
2019-05-09T00:01:10.452Z,12.82
2019-05-09T00:02:10.442Z,12.67
2019-05-09T00:03:10.429Z,12.57
2019-05-09T00:04:10.419Z,12.57
2019-05-09T00:05:10.406Z,12.53
2019-05-09T00:06:10.397Z,12.50
2019-05-09T00:07:10.390Z,12.46
2019-05-09T00:08:10.376Z,12.52
2019-05-09T00:09:10.377Z,12.47
2019-05-09T00:10:10.357Z,12.39
2019-05-09T00:11:10.344Z,12.37
2019-05-09T00:12:10.334Z,12.42
2019-05-09T00:13:10.320Z,12.47
2019-05-09T00:14:10.311Z,12.35
2019-05-09T00:15:10.302Z,12.31
2019-05-09T00:16:10.291Z,12.31
2019-05-09T00:17:10.279Z,12.31
2019-05-09T00:18:10.269Z,12.42
2019-05-09T00:19:10.257Z,12.47
2019-05-09T00:20:10.245Z,12.29
2019-05-09T00:21:10.234Z,12.41
2019-05-09T00:22:10.226Z,12.28
2019-05-09T00:23:10.213Z,12.35
2019-05-09T00:24:10.209Z,12.31
2019-05-09T00:25:10.195Z,12.32
2019-05-09T00:26:10.182Z,12.34
2019-05-09T00:27:10.171Z,12.35
2019-05-09T00:28:10.161Z,12.35
2019-05-09T00:29:10.148Z,12.28
2019-05-09T00:30:10.141Z,12.31
2019-05-09T00:31:10.131Z,12.34
2019-05-09T00:32:10.118Z,12.23
2019-05-09T00:33:10.111Z,12.20
2019-05-09T00:34:10.096Z,12.27
2019-05-09T00:35:10.087Z,12.21
2019-05-09T00:36:10.083Z,12.21
2019-05-09T00:37:10.064Z,12.37
2019-05-09T00:38:10.055Z,12.35
2019-05-09T00:39:10.051Z,12.37
2019-05-09T00:40:10.032Z,12.32
2019-05-09T00:41:10.024Z,12.37
2019-05-09T00:42:10.012Z,12.35
2019-05-09T00:43:09.997Z,12.32
2019-05-09T00:44:09.996Z,12.39
2019-05-09T00:45:09.978Z,12.37
2019-05-09T00:46:09.967Z,12.32
2019-05-09T00:47:09.964Z,12.32
2019-05-09T00:48:09.952Z,12.34
2019-05-09T00:49:09.935Z,12.28
2019-05-09T00:50:09.927Z,12.27
2019-05-09T00:51:09.915Z,12.24
2019-05-09T00:52:09.906Z,12.24
2019-05-09T00:53:09.892Z,12.24
2019-05-09T00:54:09.884Z,12.20
2019-05-09T00:55:09.871Z,12.27
2019-05-09T00:56:09.860Z,12.24
2019-05-09T00:57:09.849Z,12.23
2019-05-09T00:58:09.837Z,12.28
2019-05-09T00:59:09.827Z,12.23
2019-05-09T01:00:09.818Z,12.28
2019-05-09T01:01:09.806Z,12.28
2019-05-09T01:02:09.795Z,12.23
2019-05-09T01:03:09.785Z,12.23
2019-05-09T01:04:09.776Z,12.29
2019-05-09T01:05:09.764Z,12.31
2019-05-09T01:06:09.753Z,12.24
2019-05-09T01:07:09.742Z,12.38
2019-05-09T01:08:09.731Z,12.35
2019-05-09T01:09:09.719Z,12.32
2019-05-09T01:10:09.711Z,12.37
2019-05-09T01:11:14.630Z,12.47
2019-05-09T01:12:10.686Z,12.32
2019-05-09T01:13:09.678Z,12.46
2019-05-09T01:14:09.668Z,12.39
2019-05-09T01:15:09.668Z,12.42
2019-05-09T01:16:09.648Z,12.45
2019-05-09T01:17:09.639Z,12.32
2019-05-09T01:18:09.625Z,12.46
2019-05-09T01:19:09.615Z,12.47
2019-05-09T01:20:09.604Z,12.38
2019-05-09T01:21:09.592Z,12.41
2019-05-09T01:22:09.580Z,12.46
2019-05-09T01:23:09.570Z,12.34
2019-05-09T01:24:09.560Z,12.37
2019-05-09T01:25:09.550Z,12.37
2019-05-09T01:26:09.538Z,12.45
2019-05-09T01:27:09.530Z,12.42
2019-05-09T01:28:09.518Z,12.39
2019-05-09T01:29:09.506Z,12.41
2019-05-09T01:30:09.497Z,12.35
2019-05-09T01:31:09.487Z,12.32
2019-05-09T01:32:09.475Z,12.35
2019-05-09T01:33:09.465Z,12.28
2019-05-09T01:34:09.452Z,12.21
2019-05-09T01:35:09.443Z,12.19
2019-05-09T01:36:09.437Z,12.21
2019-05-09T01:37:09.432Z,12.21
2019-05-09T01:38:09.412Z,12.28
2019-05-09T01:39:09.400Z,12.17
2019-05-09T01:40:09.387Z,12.19
2019-05-09T01:41:22.854Z,12.24
2019-05-09T01:42:10.366Z,12.23
2019-05-09T01:43:09.357Z,12.24
2019-05-09T01:44:09.346Z,12.19
2019-05-09T01:45:09.337Z,12.24
2019-05-09T01:46:09.324Z,12.24
2019-05-09T01:47:09.315Z,12.17
2019-05-09T01:48:09.303Z,12.20
2019-05-09T01:49:09.292Z,12.20
2019-05-09T01:50:09.285Z,12.14
2019-05-09T01:51:09.273Z,12.16
2019-05-09T01:52:09.262Z,12.20
2019-05-09T01:53:09.251Z,12.20
2019-05-09T01:54:09.239Z,12.13
2019-05-09T01:55:09.230Z,12.10
2019-05-09T01:56:09.217Z,12.14
2019-05-09T01:57:09.208Z,12.07
2019-05-09T01:58:09.198Z,12.13
2019-05-09T01:59:09.186Z,12.13
2019-05-09T02:00:09.175Z,12.16
2019-05-09T02:01:09.166Z,12.12
2019-05-09T02:02:09.209Z,12.20
2019-05-09T02:03:09.144Z,12.14
2019-05-09T02:04:09.134Z,12.19
2019-05-09T02:05:09.123Z,12.19
2019-05-09T02:06:09.113Z,12.16
2019-05-09T02:07:09.104Z,12.13
2019-05-09T02:08:09.092Z,12.13
2019-05-09T02:09:09.078Z,12.19
2019-05-09T02:10:09.070Z,12.13
2019-05-09T02:11:09.056Z,12.16
2019-05-09T02:12:09.045Z,12.12
2019-05-09T02:13:09.037Z,12.19
2019-05-09T02:14:09.025Z,12.10
2019-05-09T02:15:09.016Z,12.19
2019-05-09T02:16:09.008Z,12.16
2019-05-09T02:17:08.997Z,12.13
2019-05-09T02:18:08.981Z,12.17
2019-05-09T02:19:08.970Z,12.21
2019-05-09T02:20:08.964Z,12.17
2019-05-09T02:21:11.452Z,12.14
2019-05-09T02:22:09.937Z,12.16
2019-05-09T02:23:08.927Z,12.19
2019-05-09T02:24:08.916Z,12.16
2019-05-09T02:25:08.909Z,12.16
2019-05-09T02:26:08.893Z,12.16
2019-05-09T02:27:08.883Z,12.17
2019-05-09T02:28:08.874Z,12.16
2019-05-09T02:29:08.861Z,12.16
2019-05-09T02:30:08.852Z,12.19
2019-05-09T02:31:08.849Z,12.19
2019-05-09T02:32:08.843Z,12.16
2019-05-09T02:33:08.818Z,12.20
2019-05-09T02:34:08.809Z,12.14
2019-05-09T02:35:08.814Z,12.16
2019-05-09T02:36:09.777Z,12.19
2019-05-09T02:37:09.402Z,12.20
2019-05-09T02:38:09.654Z,12.20
2019-05-09T02:39:09.235Z,12.14
2019-05-09T02:40:10.042Z,12.20
2019-05-09T02:41:08.835Z,12.21
2019-05-09T02:42:13.355Z,12.19
2019-05-09T02:43:10.143Z,12.16
2019-05-09T02:44:09.467Z,12.20
2019-05-09T02:45:08.692Z,12.17
2019-05-09T02:46:09.762Z,12.17
2019-05-09T02:47:09.289Z,12.21
2019-05-09T02:48:09.544Z,12.19
2019-05-09T02:49:09.074Z,12.19
2019-05-09T02:50:09.468Z,12.17
2019-05-09T02:51:09.339Z,12.16
2019-05-09T02:52:08.994Z,12.19
2019-05-09T02:53:08.604Z,12.17
2019-05-09T02:54:09.951Z,12.14
2019-05-09T02:55:09.765Z,12.13
2019-05-09T02:56:09.321Z,12.17
2019-05-09T02:57:09.466Z,12.24
2019-05-09T02:58:08.552Z,12.19
2019-05-09T02:59:09.670Z,12.27
2019-05-09T03:00:08.842Z,12.16
2019-05-09T03:01:08.579Z,12.13
2019-05-09T03:02:09.629Z,12.17
2019-05-09T03:03:09.415Z,12.19
2019-05-09T03:04:08.647Z,12.20
2019-05-09T03:05:08.992Z,12.20
2019-05-09T03:06:09.358Z,12.19
2019-05-09T03:07:09.666Z,12.16
2019-05-09T03:08:09.249Z,12.09
2019-05-09T03:09:09.097Z,12.09
2019-05-09T03:10:09.012Z,12.13
2019-05-09T03:11:09.830Z,12.10
2019-05-09T03:12:23.027Z,12.14
2019-05-09T03:13:09.632Z,12.09
2019-05-09T03:14:09.272Z,12.12
2019-05-09T03:15:09.181Z,12.07
2019-05-09T03:16:08.740Z,12.16
2019-05-09T03:17:09.092Z,12.13
2019-05-09T03:18:09.090Z,12.13
2019-05-09T03:19:09.262Z,12.12
2019-05-09T03:20:09.489Z,12.01
2019-05-09T03:21:09.107Z,11.98
2019-05-09T03:22:08.815Z,12.04
2019-05-09T03:23:09.288Z,12.07
2019-05-09T03:24:09.853Z,12.01
2019-05-09T03:25:09.206Z,11.98
2019-05-09T03:26:09.166Z,12.01
2019-05-09T03:27:08.691Z,11.95
2019-05-09T03:28:09.678Z,11.90
2019-05-09T03:29:08.993Z,11.99
2019-05-09T03:30:12.048Z,12.01
2019-05-09T03:31:09.442Z,11.96
2019-05-09T03:32:09.387Z,12.01
2019-05-09T03:33:10.310Z,11.91
2019-05-09T03:34:09.455Z,12.01
2019-05-09T03:35:08.493Z,12.01
2019-05-09T03:36:08.136Z,11.99
2019-05-09T03:37:08.570Z,11.96
2019-05-09T03:38:08.499Z,11.95
2019-05-09T03:39:08.293Z,11.95
2019-05-09T03:40:08.089Z,12.04
2019-05-09T03:41:08.615Z,11.91
2019-05-09T03:42:08.066Z,11.96
2019-05-09T03:43:08.241Z,11.96
2019-05-09T03:44:08.048Z,11.98
2019-05-09T03:45:08.343Z,11.91
2019-05-09T03:46:08.024Z,11.91
2019-05-09T03:47:08.442Z,11.91
2019-05-09T03:48:08.007Z,11.85
2019-05-09T03:49:07.996Z,11.91
2019-05-09T03:50:08.298Z,11.86
2019-05-09T03:51:08.186Z,11.91
2019-05-09T03:52:07.960Z,11.91
2019-05-09T03:53:08.470Z,11.98
2019-05-09T03:54:08.231Z,11.86
2019-05-09T03:55:07.931Z,11.96
2019-05-09T03:56:08.022Z,11.90
2019-05-09T03:57:07.907Z,12.01
2019-05-09T03:58:07.897Z,12.07
2019-05-09T03:59:08.414Z,11.99
2019-05-09T04:00:07.872Z,12.02
2019-05-09T04:01:10.315Z,12.04
2019-05-09T04:02:10.184Z,12.01
2019-05-09T04:03:08.235Z,12.07
2019-05-09T04:04:08.808Z,12.05
2019-05-09T04:05:08.251Z,12.07
2019-05-09T04:06:08.423Z,12.12
2019-05-09T04:07:08.405Z,12.12
2019-05-09T04:08:07.788Z,12.16
2019-05-09T04:09:07.778Z,12.10
2019-05-09T04:10:07.922Z,12.21
2019-05-09T04:11:08.551Z,12.14
2019-05-09T04:12:07.743Z,12.19
2019-05-09T04:13:08.257Z,12.16
2019-05-09T04:14:08.340Z,12.12
2019-05-09T04:15:08.430Z,12.21
2019-05-09T04:16:07.717Z,12.19
2019-05-09T04:17:07.952Z,12.29
2019-05-09T04:18:08.238Z,12.21
2019-05-09T04:19:08.317Z,12.35
2019-05-09T04:20:08.179Z,12.31
2019-05-09T04:21:08.397Z,12.31
2019-05-09T04:22:08.131Z,12.39
2019-05-09T04:23:07.974Z,12.35
2019-05-09T04:24:08.493Z,12.46
2019-05-09T04:25:08.045Z,12.34
2019-05-09T04:26:07.712Z,12.41
2019-05-09T04:27:07.901Z,12.47
2019-05-09T04:28:07.569Z,12.47
2019-05-09T04:29:08.091Z,12.52
2019-05-09T04:30:09.402Z,12.37
2019-05-09T04:31:07.535Z,12.50
2019-05-09T04:32:08.073Z,12.52
2019-05-09T04:33:07.518Z,12.42
2019-05-09T04:34:09.696Z,12.50
2019-05-09T04:35:08.097Z,12.42
2019-05-09T04:36:08.361Z,12.39
2019-05-09T04:37:08.490Z,12.47
2019-05-09T04:38:07.513Z,12.46
2019-05-09T04:39:07.703Z,12.45
2019-05-09T04:40:08.275Z,12.45
2019-05-09T04:41:07.540Z,12.38
2019-05-09T04:42:08.279Z,12.39
2019-05-09T04:43:15.394Z,12.37
2019-05-09T04:44:14.206Z,12.52
2019-05-09T04:45:10.246Z,12.46
2019-05-09T04:46:07.978Z,12.45
2019-05-09T04:47:08.713Z,12.57
2019-05-09T04:48:07.796Z,12.59
2019-05-09T04:49:08.226Z,12.53
2019-05-09T04:50:07.668Z,12.53
2019-05-09T04:51:08.029Z,12.54
2019-05-09T04:52:07.739Z,12.46
2019-05-09T04:53:07.981Z,12.47
2019-05-09T04:54:07.404Z,12.57
2019-05-09T04:55:07.860Z,12.49
2019-05-09T04:56:07.307Z,12.62
2019-05-09T04:57:07.962Z,12.59
2019-05-09T04:58:09.258Z,12.57
2019-05-09T04:59:07.564Z,12.64
2019-05-09T05:00:07.965Z,12.65
2019-05-09T05:01:07.377Z,12.64
2019-05-09T05:02:08.688Z,12.56
2019-05-09T05:03:07.970Z,12.65
2019-05-09T05:04:07.794Z,12.67
2019-05-09T05:05:07.789Z,12.77
2019-05-09T05:06:07.737Z,12.75
2019-05-09T05:07:07.717Z,12.72
2019-05-09T05:08:07.591Z,12.77
2019-05-09T05:09:07.837Z,12.75
2019-05-09T05:10:09.011Z,12.74
2019-05-09T05:11:07.567Z,12.75
2019-05-09T05:12:08.432Z,12.77
2019-05-09T05:13:07.786Z,12.77
2019-05-09T05:14:09.197Z,12.71
2019-05-09T05:15:08.002Z,12.74
2019-05-09T05:16:08.334Z,12.71
2019-05-09T05:17:10.899Z,12.68
2019-05-09T05:18:08.568Z,12.60
2019-05-09T05:19:07.564Z,12.65
2019-05-09T05:20:08.381Z,12.59
2019-05-09T05:21:07.793Z,12.59
2019-05-09T05:22:07.468Z,12.57
2019-05-09T05:23:08.231Z,12.54
2019-05-09T05:24:08.191Z,12.57
2019-05-09T05:25:09.291Z,12.57
2019-05-09T05:26:09.214Z,12.62
2019-05-09T05:27:08.249Z,12.68
2019-05-09T05:28:08.565Z,12.70
2019-05-09T05:29:08.425Z,12.68
2019-05-09T05:30:07.637Z,12.78
2019-05-09T05:31:07.477Z,12.75
2019-05-09T05:32:08.538Z,12.78
2019-05-09T05:33:08.083Z,12.86
2019-05-09T05:34:08.331Z,12.77
2019-05-09T05:35:07.599Z,12.83
2019-05-09T05:36:07.918Z,12.85
2019-05-09T05:37:07.532Z,12.92
2019-05-09T05:38:08.531Z,12.82
2019-05-09T05:39:07.537Z,12.95
2019-05-09T05:40:07.830Z,12.95
2019-05-09T05:41:08.032Z,12.87
2019-05-09T05:42:08.262Z,12.79
2019-05-09T05:43:08.778Z,12.85
2019-05-09T05:44:08.534Z,12.89
2019-05-09T05:45:07.517Z,12.95
2019-05-09T05:46:07.670Z,13.03
2019-05-09T05:47:07.723Z,13.04
2019-05-09T05:48:07.894Z,13.04
2019-05-09T05:49:08.075Z,13.08
2019-05-09T05:50:08.365Z,13.12
2019-05-09T05:51:08.153Z,13.11
2019-05-09T05:52:08.063Z,13.14
2019-05-09T05:53:07.976Z,13.17
2019-05-09T05:54:07.780Z,13.14
2019-05-09T05:55:07.561Z,13.15
2019-05-09T05:56:08.527Z,13.19
2019-05-09T05:57:08.459Z,13.26
2019-05-09T05:58:08.566Z,13.14
2019-05-09T05:59:08.506Z,13.08
2019-05-09T06:00:07.882Z,13.19
2019-05-09T06:01:08.240Z,13.14
2019-05-09T06:02:08.590Z,13.11
2019-05-09T06:03:08.747Z,13.08
2019-05-09T06:04:07.627Z,13.07
2019-05-09T06:05:08.515Z,13.15
2019-05-09T06:06:08.617Z,13.10
2019-05-09T06:07:07.964Z,13.17
2019-05-09T06:08:08.186Z,13.07
2019-05-09T06:09:08.302Z,13.12
2019-05-09T06:10:08.217Z,13.00
2019-05-09T06:11:11.434Z,13.04
2019-05-09T06:12:08.326Z,13.10
2019-05-09T06:13:07.947Z,13.03
2019-05-09T06:14:11.457Z,13.05
2019-05-09T06:15:07.723Z,13.03
2019-05-09T06:16:08.520Z,13.03
2019-05-09T06:17:08.037Z,13.01
2019-05-09T06:18:07.950Z,13.05
2019-05-09T06:19:08.804Z,13.04
2019-05-09T06:20:08.817Z,13.03
2019-05-09T06:21:08.673Z,13.07
2019-05-09T06:22:08.189Z,13.17
2019-05-09T06:23:08.436Z,13.20
2019-05-09T06:24:08.468Z,13.17
2019-05-09T06:25:09.889Z,13.32
2019-05-09T06:26:10.018Z,13.32
2019-05-09T06:27:09.842Z,13.32
2019-05-09T06:28:07.635Z,13.39
2019-05-09T06:29:08.081Z,13.32
2019-05-09T06:30:08.434Z,13.49
2019-05-09T06:31:07.531Z,13.52
2019-05-09T06:32:07.834Z,13.46
2019-05-09T06:33:08.718Z,13.42
2019-05-09T06:34:08.361Z,13.48
2019-05-09T06:35:08.194Z,13.44
2019-05-09T06:36:07.945Z,13.48
2019-05-09T06:37:09.055Z,13.49
2019-05-09T06:38:07.847Z,13.48
2019-05-09T06:39:08.148Z,13.49
2019-05-09T06:40:08.129Z,13.46
2019-05-09T06:41:08.483Z,13.39
2019-05-09T06:42:08.571Z,13.36
2019-05-09T06:43:08.021Z,13.33
2019-05-09T06:44:14.337Z,13.26
2019-05-09T06:45:07.744Z,13.30
2019-05-09T06:46:08.075Z,13.26
2019-05-09T06:47:08.319Z,13.26
2019-05-09T06:48:07.604Z,13.33
2019-05-09T06:49:21.450Z,13.36
2019-05-09T06:50:08.013Z,13.46
2019-05-09T06:51:07.323Z,13.42
2019-05-09T06:52:08.530Z,13.45
2019-05-09T06:53:08.017Z,13.36
2019-05-09T06:54:07.949Z,13.44
2019-05-09T06:55:08.354Z,13.49
2019-05-09T06:56:07.432Z,13.48
2019-05-09T06:57:07.970Z,13.52
2019-05-09T06:58:05.948Z,13.52
2019-05-09T06:59:07.620Z,13.55
2019-05-09T07:00:08.295Z,13.59
2019-05-09T07:01:07.697Z,13.62
2019-05-09T07:02:08.048Z,13.60
2019-05-09T07:03:08.095Z,13.59
2019-05-09T07:04:05.883Z,13.55
2019-05-09T07:05:07.618Z,13.62
2019-05-09T07:06:08.290Z,13.67
2019-05-09T07:07:08.005Z,13.77
2019-05-09T07:08:07.992Z,14.03
2019-05-09T07:09:08.224Z,14.04
2019-05-09T07:10:07.568Z,14.20
2019-05-09T07:11:07.579Z,14.35
2019-05-09T07:12:07.849Z,14.46
2019-05-09T07:13:07.849Z,14.42
2019-05-09T07:14:05.772Z,14.51
2019-05-09T07:15:05.764Z,14.43
2019-05-09T07:16:05.752Z,14.52
2019-05-09T07:17:07.934Z,14.42
2019-05-09T07:18:07.960Z,14.45
2019-05-09T07:19:07.858Z,14.46
2019-05-09T07:20:08.189Z,14.45
2019-05-09T07:21:08.060Z,14.42
2019-05-09T07:22:05.691Z,14.39
2019-05-09T07:23:05.679Z,14.37
2019-05-09T07:24:07.809Z,14.27
2019-05-09T07:25:10.240Z,14.37
2019-05-09T07:26:07.681Z,14.21
2019-05-09T07:27:07.353Z,14.22
2019-05-09T07:28:07.674Z,14.35
2019-05-09T07:29:07.454Z,14.25
2019-05-09T07:30:07.702Z,14.06
2019-05-09T07:31:07.684Z,14.07
2019-05-09T07:32:07.519Z,14.24
2019-05-09T07:33:05.569Z,14.22
2019-05-09T07:34:05.563Z,14.18
2019-05-09T07:35:05.549Z,14.37
2019-05-09T07:36:05.537Z,14.35
2019-05-09T07:37:05.527Z,14.36
2019-05-09T07:38:05.517Z,14.25
2019-05-09T07:39:05.504Z,14.22
2019-05-09T07:40:05.494Z,14.25
2019-05-09T07:41:05.485Z,14.37
2019-05-09T07:42:07.648Z,14.35
2019-05-09T07:43:07.747Z,14.37
2019-05-09T07:44:07.601Z,14.37
2019-05-09T07:45:05.441Z,14.33
2019-05-09T07:46:05.429Z,14.57
2019-05-09T07:47:07.583Z,14.60
2019-05-09T07:48:07.465Z,14.61
2019-05-09T07:49:05.399Z,14.58
2019-05-09T07:50:08.242Z,14.75
2019-05-09T07:51:07.598Z,14.70
2019-05-09T07:52:09.222Z,14.80
2019-05-09T07:53:05.354Z,14.81
2019-05-09T07:54:20.671Z,14.92
2019-05-09T07:55:08.487Z,14.91
2019-05-09T07:56:07.704Z,14.92
2019-05-09T07:57:05.311Z,15.09
2019-05-09T07:58:07.765Z,15.14
2019-05-09T07:59:07.510Z,15.11
2019-05-09T08:00:07.634Z,15.07
2019-05-09T08:01:05.268Z,14.83
2019-05-09T08:02:05.263Z,14.88
2019-05-09T08:03:08.330Z,14.81
2019-05-09T08:04:07.514Z,14.83
2019-05-09T08:05:05.229Z,14.99
2019-05-09T08:06:05.215Z,15.02
2019-05-09T08:07:05.205Z,14.94
2019-05-09T08:08:07.334Z,14.96
2019-05-09T08:09:05.188Z,14.92
2019-05-09T08:10:05.181Z,15.10
2019-05-09T08:11:05.161Z,15.16
2019-05-09T08:12:07.366Z,15.14
2019-05-09T08:13:08.289Z,14.96
2019-05-09T08:14:10.459Z,14.89
2019-05-09T08:15:13.660Z,14.88
2019-05-09T08:16:07.925Z,14.80
2019-05-09T08:17:08.408Z,14.83
2019-05-09T08:18:05.088Z,14.88
2019-05-09T08:19:07.333Z,14.75
2019-05-09T08:20:05.067Z,14.84
2019-05-09T08:21:05.055Z,14.83
2019-05-09T08:22:05.046Z,14.81
2019-05-09T08:23:05.032Z,14.68
2019-05-09T08:24:05.022Z,14.75
2019-05-09T08:25:05.011Z,14.83
2019-05-09T08:26:05.002Z,14.81
2019-05-09T08:27:04.992Z,14.88
2019-05-09T08:28:04.981Z,14.86
2019-05-09T08:29:04.972Z,14.77
2019-05-09T08:30:07.695Z,14.61
2019-05-09T08:31:08.023Z,14.65
2019-05-09T08:32:07.263Z,14.62
2019-05-09T08:33:04.928Z,14.50
2019-05-09T08:34:04.921Z,14.51
2019-05-09T08:35:04.922Z,14.52
2019-05-09T08:36:04.897Z,14.50
2019-05-09T08:37:04.884Z,14.52
2019-05-09T08:38:04.873Z,14.70
2019-05-09T08:39:04.862Z,14.84
2019-05-09T08:40:04.851Z,14.78
2019-05-09T08:41:04.841Z,14.75
2019-05-09T08:42:04.830Z,14.86
2019-05-09T08:43:04.821Z,14.81
2019-05-09T08:44:04.808Z,14.80
2019-05-09T08:45:04.797Z,14.77
2019-05-09T08:46:04.786Z,14.89
2019-05-09T08:47:04.778Z,14.84
2019-05-09T08:48:04.769Z,14.98
2019-05-09T08:49:04.757Z,15.16
2019-05-09T08:50:04.743Z,15.07
2019-05-09T08:51:04.734Z,15.11
2019-05-09T08:52:13.076Z,15.11
2019-05-09T08:53:07.988Z,15.28
2019-05-09T08:54:04.703Z,15.44
2019-05-09T08:55:04.695Z,15.60
2019-05-09T08:56:04.685Z,15.57
2019-05-09T08:57:04.671Z,15.64
2019-05-09T08:58:04.664Z,15.74
2019-05-09T08:59:04.649Z,15.76
2019-05-09T09:00:04.637Z,15.72
2019-05-09T09:01:04.720Z,15.69
2019-05-09T09:02:15.703Z,15.49
2019-05-09T09:03:07.768Z,15.34
2019-05-09T09:04:04.596Z,15.32
2019-05-09T09:05:04.598Z,15.23
2019-05-09T09:06:04.571Z,15.32
2019-05-09T09:07:04.560Z,15.47
2019-05-09T09:08:04.551Z,15.41
2019-05-09T09:09:04.540Z,15.67
2019-05-09T09:10:04.528Z,15.76
2019-05-09T09:11:04.516Z,16.09
2019-05-09T09:12:21.196Z,16.24
2019-05-09T09:13:05.495Z,16.24
2019-05-09T09:14:04.484Z,16.08
2019-05-09T09:15:04.473Z,15.83
2019-05-09T09:16:11.763Z,15.74
2019-05-09T09:17:07.750Z,15.74
2019-05-09T09:18:04.441Z,15.64
2019-05-09T09:19:04.430Z,15.69
2019-05-09T09:20:04.419Z,15.62
2019-05-09T09:21:04.408Z,15.59
2019-05-09T09:22:04.397Z,15.59
2019-05-09T09:23:04.386Z,15.60
2019-05-09T09:24:04.377Z,16.21
2019-05-09T09:25:04.369Z,16.39
2019-05-09T09:26:04.355Z,16.53
2019-05-09T09:27:04.343Z,16.45
2019-05-09T09:28:04.333Z,16.63
2019-05-09T09:29:04.322Z,16.61
2019-05-09T09:30:17.724Z,16.20
2019-05-09T09:31:07.887Z,15.96
2019-05-09T09:32:04.290Z,15.84
2019-05-09T09:33:04.280Z,15.92
2019-05-09T09:34:04.279Z,16.05
2019-05-09T09:35:04.265Z,16.20
2019-05-09T09:36:04.250Z,16.27
2019-05-09T09:37:06.108Z,16.78
2019-05-09T09:38:05.223Z,17.43
2019-05-09T09:39:04.216Z,17.59
2019-05-09T09:40:04.203Z,17.79
2019-05-09T09:41:04.192Z,17.84
2019-05-09T09:42:04.186Z,18.07
2019-05-09T09:43:04.172Z,17.70
2019-05-09T09:44:04.165Z,17.07
2019-05-09T09:45:04.152Z,16.63
2019-05-09T09:46:11.031Z,16.25
2019-05-09T09:47:07.232Z,16.05
2019-05-09T09:48:04.119Z,15.94
2019-05-09T09:49:04.109Z,16.12
2019-05-09T09:50:04.267Z,16.28
2019-05-09T09:51:04.088Z,16.41
2019-05-09T09:52:04.099Z,16.41
2019-05-09T09:53:04.068Z,16.45
2019-05-09T09:54:04.054Z,16.61
2019-05-09T09:55:04.043Z,16.61
2019-05-09T09:56:04.050Z,16.75
2019-05-09T09:57:04.026Z,16.63
2019-05-09T09:58:04.015Z,16.79
2019-05-09T09:59:03.999Z,16.70
2019-05-09T10:00:03.996Z,16.86
2019-05-09T10:01:04.095Z,17.01
2019-05-09T10:02:04.143Z,16.96
2019-05-09T10:03:03.958Z,16.83
2019-05-09T10:04:19.116Z,16.86
2019-05-09T10:05:04.938Z,16.89
2019-05-09T10:06:03.925Z,16.85
2019-05-09T10:07:03.923Z,17.07
2019-05-09T10:08:03.912Z,17.31
2019-05-09T10:09:03.894Z,17.33
2019-05-09T10:10:03.882Z,17.22
2019-05-09T10:11:03.872Z,17.43
2019-05-09T10:12:03.862Z,17.48
2019-05-09T10:13:04.326Z,17.99
2019-05-09T10:14:03.842Z,18.14
2019-05-09T10:15:03.829Z,18.39
2019-05-09T10:16:03.819Z,18.44
2019-05-09T10:17:03.822Z,18.36
2019-05-09T10:18:03.799Z,18.62
2019-05-09T10:19:03.785Z,18.60
2019-05-09T10:20:03.775Z,18.51
2019-05-09T10:21:03.766Z,18.47
2019-05-09T10:22:03.752Z,18.11
2019-05-09T10:23:15.060Z,17.72
2019-05-09T10:24:04.732Z,17.25
2019-05-09T10:25:03.723Z,16.96
2019-05-09T10:26:03.720Z,16.67
2019-05-09T10:27:03.699Z,16.41
2019-05-09T10:28:03.694Z,16.15
2019-05-09T10:29:03.693Z,16.07
2019-05-09T10:30:03.667Z,15.89
2019-05-09T10:31:03.656Z,15.86
2019-05-09T10:32:03.651Z,15.75
2019-05-09T10:33:03.635Z,15.86
2019-05-09T10:34:03.623Z,15.80
2019-05-09T10:35:03.613Z,15.80
2019-05-09T10:36:04.878Z,15.75
2019-05-09T10:37:03.593Z,15.57
2019-05-09T10:38:03.582Z,15.76
2019-05-09T10:39:03.580Z,15.74
2019-05-09T10:40:03.587Z,15.62
2019-05-09T10:41:03.688Z,15.68
2019-05-09T10:42:03.537Z,15.76
2019-05-09T10:43:03.526Z,15.96
2019-05-09T10:44:03.525Z,16.01
2019-05-09T10:45:03.505Z,16.05
2019-05-09T10:46:03.493Z,16.27
2019-05-09T10:47:03.485Z,16.20
2019-05-09T10:48:03.472Z,16.17
2019-05-09T10:49:03.525Z,16.45
2019-05-09T10:50:03.450Z,16.70
2019-05-09T10:51:05.964Z,17.01
2019-05-09T10:52:03.429Z,17.19
2019-05-09T10:53:03.504Z,17.26
2019-05-09T10:54:03.414Z,17.28
2019-05-09T10:55:03.395Z,17.23
2019-05-09T10:56:03.384Z,16.97
2019-05-09T10:57:03.373Z,16.98
2019-05-09T10:58:03.364Z,17.18
2019-05-09T10:59:03.353Z,17.34
2019-05-09T11:00:03.625Z,17.38
2019-05-09T11:01:03.330Z,17.33
2019-05-09T11:02:03.321Z,17.36
2019-05-09T11:03:03.310Z,17.38
2019-05-09T11:04:03.318Z,17.55
2019-05-09T11:05:03.300Z,17.58
2019-05-09T11:06:03.278Z,17.54
2019-05-09T11:07:03.287Z,17.31
2019-05-09T11:08:03.254Z,17.41
2019-05-09T11:09:03.250Z,17.43
2019-05-09T11:10:03.237Z,17.44
2019-05-09T11:11:06.040Z,17.43
2019-05-09T11:12:04.211Z,17.46
2019-05-09T11:13:03.213Z,17.46
2019-05-09T11:14:03.201Z,17.38
2019-05-09T11:15:03.179Z,17.46
2019-05-09T11:16:03.199Z,17.23
2019-05-09T11:17:10.798Z,16.94
2019-05-09T11:18:04.145Z,16.86
2019-05-09T11:19:03.137Z,16.83
2019-05-09T11:20:03.131Z,16.70
2019-05-09T11:21:03.149Z,16.53
2019-05-09T11:22:03.117Z,16.33
2019-05-09T11:23:03.094Z,16.28
2019-05-09T11:24:03.090Z,16.11
2019-05-09T11:25:03.107Z,16.04
2019-05-09T11:26:03.059Z,15.89
2019-05-09T11:27:03.050Z,15.68
2019-05-09T11:28:10.388Z,15.59
2019-05-09T11:29:04.031Z,15.51
2019-05-09T11:30:03.016Z,15.36
2019-05-09T11:31:03.006Z,15.23
2019-05-09T11:32:03.004Z,15.09
2019-05-09T11:33:02.987Z,14.98
2019-05-09T11:34:02.975Z,14.84
2019-05-09T11:35:02.963Z,14.80
2019-05-09T11:36:02.976Z,14.64
2019-05-09T11:37:02.942Z,14.69
2019-05-09T11:38:02.932Z,14.52
2019-05-09T11:39:02.959Z,14.39
2019-05-09T11:40:02.909Z,14.35
2019-05-09T11:41:02.898Z,14.24
2019-05-09T11:42:02.891Z,14.27
2019-05-09T11:43:02.898Z,14.27
2019-05-09T11:44:02.885Z,14.25
2019-05-09T11:45:02.855Z,14.18
2019-05-09T11:46:02.846Z,14.12
2019-05-09T11:47:02.834Z,14.17
2019-05-09T11:48:02.823Z,14.20
2019-05-09T11:49:02.814Z,14.33
2019-05-09T11:50:02.804Z,14.15
2019-05-09T11:51:02.794Z,14.14
2019-05-09T11:52:02.781Z,14.22
2019-05-09T11:53:02.783Z,14.21
2019-05-09T11:54:02.766Z,14.27
2019-05-09T11:55:02.753Z,14.25
2019-05-09T11:56:02.740Z,14.36
2019-05-09T11:57:02.726Z,14.28
2019-05-09T11:58:02.716Z,14.55
2019-05-09T11:59:02.704Z,14.50
2019-05-09T12:00:02.695Z,14.65
2019-05-09T12:01:03.452Z,14.78
2019-05-09T12:02:02.676Z,14.92
2019-05-09T12:03:02.672Z,15.07
2019-05-09T12:04:02.652Z,15.21
2019-05-09T12:05:02.645Z,15.44
2019-05-09T12:06:02.631Z,15.50
2019-05-09T12:07:02.624Z,15.69
2019-05-09T12:08:02.629Z,15.83
2019-05-09T12:09:02.597Z,15.87
2019-05-09T12:10:02.663Z,16.04
2019-05-09T12:11:02.579Z,16.20
2019-05-09T12:12:02.568Z,16.14
2019-05-09T12:13:02.563Z,16.21
2019-05-09T12:14:02.545Z,16.14
2019-05-09T12:15:02.534Z,16.17
2019-05-09T12:16:02.521Z,16.28
2019-05-09T12:17:02.528Z,16.41
2019-05-09T12:18:07.498Z,16.50
2019-05-09T12:19:03.487Z,16.60
2019-05-09T12:20:12.271Z,16.78
2019-05-09T12:21:03.477Z,17.12
2019-05-09T12:22:02.460Z,17.46
2019-05-09T12:23:02.475Z,18.10
2019-05-09T12:24:02.436Z,18.99
2019-05-09T12:25:02.446Z,19.63
2019-05-09T12:26:02.415Z,20.31
2019-05-09T12:27:03.180Z,20.82
2019-05-09T12:28:02.391Z,20.88
2019-05-09T12:29:02.385Z,20.74
2019-05-09T12:30:02.370Z,20.97
2019-05-09T12:31:02.358Z,21.06
2019-05-09T12:32:02.350Z,20.99
2019-05-09T12:33:02.344Z,20.24
2019-05-09T12:34:02.329Z,19.48
2019-05-09T12:35:02.626Z,19.50
2019-05-09T12:36:02.306Z,19.63
2019-05-09T12:37:02.296Z,19.95
2019-05-09T12:38:02.286Z,20.23
2019-05-09T12:39:02.275Z,20.39
2019-05-09T12:40:02.266Z,20.67
2019-05-09T12:41:02.261Z,20.72
2019-05-09T12:42:02.267Z,20.73
2019-05-09T12:43:02.243Z,20.85
2019-05-09T12:44:02.232Z,20.84
2019-05-09T12:45:02.225Z,20.88
2019-05-09T12:46:02.203Z,20.79
2019-05-09T12:47:02.192Z,20.79
2019-05-09T12:48:10.405Z,20.67
2019-05-09T12:49:03.169Z,20.48
2019-05-09T12:50:02.884Z,20.55
2019-05-09T12:51:02.227Z,20.32
2019-05-09T12:52:02.176Z,20.32